Flight Track Log - Related Links

Times and Time Zones

All times are in EDT time to prevent confusion due to time zone crossing. See the N860BA flight status page for this flight to view local times or setup timezone preferences in your user account.

Time Position Orientation Groundspeed Altitude Reporting Facility
EDT Latitude Longitude Course Direction KTS MPH feet Rate Location/Type
Sun 07:52:25 PM 41.3128 -95.9064 330° Northwest 150 173 1,700  Level Minneapolis Center
Sun 07:53:11 PM 41.3431 -95.9297 330° Northwest 184 212 4,200 3,667 Climbing Minneapolis Center
Sun 07:54:13 PM 41.3128 -96.0006 240° Southwest 241 277 8,300 3,659 Climbing Minneapolis Center
Sun 07:55:14 PM 41.2614 -96.0664 224° Southwest 246 283 11,700 3,220 Climbing Minneapolis Center
Sun 07:56:16 PM 41.1967 -96.1364 219° Southwest 277 319 14,900 3,024 Climbing Minneapolis Center
Sun 07:57:17 PM 41.1064 -96.1500 186° South 312 359 17,900 2,976 Climbing Minneapolis Center
Sun 07:58:19 PM 41.0133 -96.1614 185° South 326 375 21,000 2,806 Climbing Minneapolis Center
Sun 07:59:21 PM 40.9175 -96.1742 186° South 336 387 23,700 2,537 Climbing Minneapolis Center
Sun 08:00:22 PM 40.8175 -96.1883 186° South 347 399 26,200 2,146 Climbing Minneapolis Center
Sun 08:01:24 PM 40.7122 -96.2028 186° South 365 420 28,100 1,756 Climbing Minneapolis Center
Sun 08:02:25 PM 40.5797 -96.2222 186° South 392 451 29,800 1,171 Climbing Minneapolis Center
Sun 08:03:27 PM 40.4625 -96.2369 185° South 413 475 30,500 683 Climbing Minneapolis Center
Sun 08:04:28 PM 40.3378 -96.2553 186° South 436 502 31,200 732 Climbing Minneapolis Center
Sun 08:05:30 PM 40.2119 -96.2711 185° South 450 518 32,000 927 Climbing Minneapolis Center
Sun 08:06:31 PM 40.0850 -96.2900 186° South 455 524 33,100 1,073 Climbing Minneapolis Center
Sun 08:07:33 PM 39.9608 -96.3067 186° South 452 520 34,200 1,101 Climbing Minneapolis Center
Sun 08:08:20 PM 39.8550 -96.3211 186° South 451 519 35,100 1,046 Climbing Kansas City Center
Sun 08:09:22 PM 39.7311 -96.3375 186° South 453 521 36,100 919 Climbing Kansas City Center
Sun 08:10:24 PM 39.5881 -96.3564 186° South 461 531 37,000 634 Climbing Kansas City Center
Sun 08:11:25 PM 39.4678 -96.4094 199° South 468 539 37,400 488 Climbing Kansas City Center
Sun 08:12:27 PM 39.3483 -96.4742 203° Southwest 465 535 38,000 290 Climbing Kansas City Center
Sun 08:13:29 PM 39.2206 -96.5436 203° Southwest 472 543 38,000  Level Kansas City Center
Sun 08:14:30 PM 39.1044 -96.6044 202° Southwest 472 543 38,000  Level Kansas City Center
Sun 08:15:32 PM 38.9858 -96.6678 203° Southwest 466 536 38,000  Level Kansas City Center
Sun 08:16:34 PM 38.8539 -96.6814 185° South 480 552 38,000  Level Kansas City Center
Sun 08:17:35 PM 38.6972 -96.6864 181° South 478 550 38,000  Level Kansas City Center
Sun 08:18:37 PM 38.5683 -96.6908 182° South 482 555 38,000  Level Kansas City Center
Sun 08:19:39 PM 38.4244 -96.6967 182° South 486 559 38,000  Level Kansas City Center
Sun 08:20:41 PM 38.2886 -96.7017 182° South 486 559 38,000  Level Kansas City Center
Sun 08:21:42 PM 38.1514 -96.7067 182° South 490 564 38,000  Level Kansas City Center
Sun 08:22:44 PM 38.0131 -96.7128 182° South 494 568 38,000  Level Kansas City Center
Sun 08:23:46 PM 37.8747 -96.7181 182° South 496 571 38,000  Level Kansas City Center
Sun 08:24:48 PM 37.7375 -96.7222 181° South 491 565 38,000  Level Kansas City Center
Sun 08:25:49 PM 37.6000 -96.7278 182° South 490 564 38,000  Level Kansas City Center
Sun 08:26:51 PM 37.4372 -96.7331 181° South 487 560 38,000  Level Kansas City Center
Sun 08:27:53 PM 37.2989 -96.7397 182° South 492 566 38,000  Level Kansas City Center
Sun 08:28:55 PM 37.1597 -96.7456 182° South 496 571 38,000  Level Kansas City Center
Sun 08:29:56 PM 37.0108 -96.7531 182° South 496 571 38,000  Level Kansas City Center
Sun 08:30:58 PM 36.8739 -96.7589 182° South 494 568 38,000  Level Kansas City Center
Sun 08:32:00 PM 36.7425 -96.7617 181° South 480 552 38,000  Level Kansas City Center
Sun 08:33:01 PM 36.6053 -96.7672 182° South 489 563 38,000  Level Kansas City Center
Sun 08:34:03 PM 36.4628 -96.7733 182° South 491 565 38,000  Level Kansas City Center
Sun 08:35:05 PM 36.3253 -96.7778 181° South 493 567 38,000  Level Kansas City Center
Sun 08:36:06 PM 36.1903 -96.7833 182° South 488 562 38,000  Level Kansas City Center
Sun 08:37:08 PM 36.0531 -96.7889 182° South 490 564 38,000  Level Kansas City Center
Sun 08:38:10 PM 35.8894 -96.7942 181° South 489 563 38,000  Level Kansas City Center
Sun 08:39:12 PM 35.7519 -96.7994 182° South 491 565 38,000 -49 Level Kansas City Center
Sun 08:40:13 PM 35.6139 -96.8028 181° South 492 566 37,900  Descending Kansas City Center
Sun 08:40:52 PM 35.5217 -96.8067 182° South 498 573 38,000 61 Climbing Fort Worth Center
Sun 08:41:52 PM 35.3819 -96.8100 181° South 498 573 38,000  Level Fort Worth Center
Sun 08:42:52 PM 35.2464 -96.8186 183° South 498 573 38,000  Level Fort Worth Center
Sun 08:43:52 PM 35.1086 -96.8247 182° South 498 573 38,000  Level Fort Worth Center
Sun 08:44:52 PM 34.9711 -96.8283 181° South 498 573 38,000  Level Fort Worth Center
Sun 08:45:52 PM 34.8314 -96.8367 183° South 498 573 38,000  Level Fort Worth Center
Sun 08:46:52 PM 34.6936 -96.8403 181° South 498 573 38,000  Level Fort Worth Center
Sun 08:47:52 PM 34.5603 -96.8461 182° South 498 573 38,000 -50 Level Fort Worth Center
Sun 08:48:52 PM 34.4225 -96.8522 182° South 498 573 37,900  Descending Fort Worth Center
Sun 08:49:52 PM 34.2847 -96.8581 182° South 498 573 38,000  Climbing Fort Worth Center
Sun 08:50:52 PM 34.1472 -96.8639 182° South 498 573 37,900 -50 Descending Fort Worth Center
Sun 08:51:52 PM 34.0136 -96.8672 181° South 498 573 37,900 50 Level Fort Worth Center
Sun 08:52:52 PM 33.8758 -96.8731 182° South 498 573 38,000 50 Climbing Fort Worth Center
Sun 08:53:52 PM 33.7444 -96.8739 180° South 493 567 38,000  Level Fort Worth Center
Sun 08:54:52 PM 33.6233 -96.8797 182° South 493 567 38,000  Level Fort Worth Center
Sun 08:55:52 PM 33.4711 -96.8856 182° South 493 567 38,000  Level Fort Worth Center
Sun 08:56:52 PM 33.3500 -96.8886 181° South 498 573 38,000  Level Fort Worth Center
Sun 08:57:52 PM 33.1997 -96.8919 181° South 498 573 38,000  Level Fort Worth Center
Sun 08:58:52 PM 33.0744 -96.8978 182° South 493 567 38,000  Level Fort Worth Center
Sun 08:59:52 PM 32.9242 -96.9011 181° South 493 567 38,000  Level Fort Worth Center
Sun 09:00:52 PM 32.7864 -96.8969 179° South 493 567 38,000  Level Fort Worth Center
Sun 09:01:52 PM 32.6444 -96.8903 178° South 498 573 38,000  Level Fort Worth Center
Sun 09:02:52 PM 32.5067 -96.8814 177° South 498 573 38,000  Level Fort Worth Center
Sun 09:03:52 PM 32.3667 -96.8747 178° South 498 573 38,000  Level Fort Worth Center
Sun 09:04:52 PM 32.2414 -96.8681 177° South 498 573 38,000  Level Fort Worth Center
Sun 09:05:52 PM 32.1014 -96.8567 176° South 498 573 38,000  Level Fort Worth Center
Sun 09:06:52 PM 31.9636 -96.8525 179° South 498 573 38,000 -50 Level Fort Worth Center
Sun 09:07:52 PM 31.8258 -96.8436 177° South 498 573 37,900 -39 Descending Fort Worth Center
Sun 09:09:26 PM 31.6108 -96.8239 176° South 505 581 37,900 -500 Level Houston Center
Sun 09:10:28 PM 31.4442 -96.7944 171° South 510 587 36,600 -2,098 Descending Houston Center
Sun 09:11:29 PM 31.3008 -96.7717 172° South 512 589 33,600 -2,852 Descending Houston Center
Sun 09:12:30 PM 31.1639 -96.7431 170° South 495 570 30,800 -2,803 Descending Houston Center
Sun 09:13:31 PM 31.0381 -96.6733 155° Southeast 491 565 27,900 -2,852 Descending Houston Center
Sun 09:14:32 PM 30.9131 -96.6017 154° Southeast 493 567 25,000 -2,803 Descending Houston Center
Sun 09:15:33 PM 30.7856 -96.5303 154° Southeast 499 574 22,200 -2,803 Descending Houston Center
Sun 09:16:34 PM 30.6619 -96.4614 154° Southeast 490 564 19,300 -2,780 Descending Houston Center
Sun 09:17:36 PM 30.5431 -96.3939 154° Southeast 474 545 16,500 -2,578 Descending Houston Center
Sun 09:18:42 PM 30.4214 -96.3267 155° Southeast 429 494 13,800 -2,164 Descending Houston Center
Sun 09:19:38 PM 30.3281 -96.2742 154° Southeast 411 473 12,100 -1,436 Descending Houston Center
Sun 09:20:39 PM 30.2192 -96.2144 155° Southeast 427 491 11,000 -590 Descending Houston Center
Sun 09:21:40 PM 30.1147 -96.1561 154° Southeast 427 491 10,900 -49 Descending Houston Center
Sun 09:22:41 PM 30.0208 -96.0686 141° Southeast 433 498 10,900 48 Level Houston Center
Sun 09:23:46 PM 29.9203 -95.9608 137° Southeast 430 495 11,000  Climbing Houston Center
Sun 09:24:43 PM 29.8383 -95.8725 137° Southeast 430 495 10,900 -559 Descending Houston Center
Sun 09:25:44 PM 29.7644 -95.7919 137° Southeast 360 414 9,900 -1,230 Descending Houston Center
Sun 09:26:45 PM 29.6997 -95.7242 138° Southeast 320 368 8,400 -1,623 Descending Houston Center
Sun 09:27:46 PM 29.6411 -95.6603 137° Southeast 296 341 6,600 -1,525 Descending Houston Center
Sun 09:28:47 PM 29.5903 -95.5919 131° Southeast 293 337 5,300 -1,377 Descending Houston Center
Sun 09:29:48 PM 29.5753 -95.5119 102° East 262 302 3,800 -1,131 Descending Houston Center
Sun 09:30:49 PM 29.5619 -95.4364 101° East 249 287 3,000 -639 Descending Houston Center
Sun 09:31:50 PM 29.5597 -95.3753 92° East 212 244 2,500 -779 Descending Houston Center
Sun 09:33:00 PM 29.5933 -95.3350 46° Northeast 112 129 1,300 -836 Descending Houston Center
Sun 09:33:52 PM 29.6119 -95.3158 42° Northeast 138 159 800 -584 Descending Houston Center
Sun 09:34:53 PM 29.6361 -95.2906 42° Northeast 126 145 200 -590 Descending Houston Center
Sun 09:36:00 PM 29.6333 -95.2667 57° Northeast  Level FlightAware Approximate
Sun 09:43:00 PM 29.6454 -95.2789 57° Northeast  Level Estimated

Login

Don't have an account? Register now (free) for customized features, flight alerts, and more!